Time;durP1;ratioP1;P1;durP2;ratioP2;P2;SDS_P1;SDS_P2;PMS_P1;PMS_P2;Temp;Humidity;BMP_temperature;BMP_pressure;BME280_temperature;BME280_humidity;BME280_pressure;Samples;Min_cycle;Max_cycle;Signal;HPM_P1;HPM_P2
2022/01/31 00:02:05;;;;;;;15.17;2.77;;;;;;;4.26;68.02;101074.31;5074684;28;20326;-52
2022/01/31 00:04:31;;;;;;;12.37;3.23;;;;;;;4.31;67.57;101058.00;5074576;28;20383;-52
2022/01/31 00:06:59;;;;;;;14.83;2.30;;;;;;;4.28;67.17;101044.94;5077005;28;20319;-48
2022/01/31 00:09:25;;;;;;;8.83;3.10;;;;;;;4.27;68.12;101056.13;5072969;28;20246;-50
2022/01/31 00:11:58;;;;;;;6.53;2.90;;;;;;;4.33;67.63;101062.38;5078134;28;20788;-52
2022/01/31 00:17:09;;;;;;;14.17;3.83;;;;;;;4.28;67.92;101057.94;5065935;28;20227;-51
2022/01/31 00:19:36;;;;;;;12.50;3.63;;;;;;;4.23;68.41;101053.41;5080667;28;20345;-50
2022/01/31 00:22:05;;;;;;;9.07;3.33;;;;;;;4.27;68.73;101035.34;5074690;28;20226;-50
2022/01/31 00:24:31;;;;;;;11.27;3.40;;;;;;;4.25;69.39;101026.66;5080594;28;20227;-52
2022/01/31 00:26:58;;;;;;;11.63;3.60;;;;;;;4.23;70.46;101019.63;5084164;28;20679;-50
2022/01/31 00:29:24;;;;;;;14.17;3.57;;;;;;;4.20;71.62;101016.94;5087074;28;20238;-51
2022/01/31 00:31:50;;;;;;;10.47;3.70;;;;;;;4.19;71.90;101004.78;5085283;28;20279;-55
2022/01/31 00:34:17;;;;;;;11.70;3.17;;;;;;;4.06;73.78;100998.34;5091460;27;20222;-52
2022/01/31 00:36:43;;;;;;;16.53;3.83;;;;;;;4.04;74.97;101000.91;5086435;28;20300;-49
2022/01/31 00:39:11;;;;;;;10.90;3.17;;;;;;;4.03;76.07;100999.13;5086651;28;20278;-52
2022/01/31 00:41:38;;;;;;;16.53;3.47;;;;;;;3.96;76.86;100991.09;5087024;28;20230;-55
2022/01/31 00:44:16;;;;;;;14.03;4.00;;;;;;;4.10;77.86;100991.53;5086614;28;20223;-55
2022/01/31 00:46:48;;;;;;;11.60;3.07;;;;;;;3.97;78.64;100985.09;5074639;28;20238;-49
2022/01/31 00:49:23;;;;;;;14.27;3.70;;;;;;;4.03;79.12;100985.25;5077000;28;20236;-51
2022/01/31 00:51:50;;;;;;;15.80;4.07;;;;;;;4.02;80.07;100993.91;5074650;28;20823;-51
2022/01/31 00:54:17;;;;;;;16.17;4.70;;;;;;;3.96;81.21;100989.38;5078426;28;20239;-50
2022/01/31 00:56:44;;;;;;;10.37;3.70;;;;;;;3.97;82.73;100982.50;5085289;28;20281;-50
2022/01/31 00:59:10;;;;;;;12.80;4.20;;;;;;;4.05;84.07;100978.41;5086253;27;20257;-50
2022/01/31 01:01:36;;;;;;;14.90;4.77;;;;;;;4.06;83.57;100977.56;5085612;27;20253;-51
2022/01/31 01:04:03;;;;;;;21.53;4.90;;;;;;;3.93;86.34;100963.34;5085495;28;20298;-49
2022/01/31 01:06:29;;;;;;;14.37;4.03;;;;;;;3.85;88.64;100972.59;5078025;28;20246;-50
2022/01/31 01:08:55;;;;;;;24.37;5.03;;;;;;;3.78;88.75;100966.34;5078991;27;20289;-50
2022/01/31 01:11:23;;;;;;;21.57;4.43;;;;;;;3.78;89.62;100966.34;5083990;28;20250;-49
2022/01/31 01:13:49;;;;;;;19.10;4.67;;;;;;;3.71;90.10;100954.00;5081952;27;20291;-50
2022/01/31 01:16:16;;;;;;;15.90;4.53;;;;;;;3.66;91.57;100950.41;5074862;28;20294;-52
2022/01/31 01:18:42;;;;;;;17.43;4.47;;;;;;;3.57;91.30;100942.34;5084469;28;20734;-49
2022/01/31 01:21:09;;;;;;;30.20;6.70;;;;;;;3.59;91.14;100930.28;5082877;27;20298;-50
2022/01/31 01:23:35;;;;;;;12.23;3.50;;;;;;;3.55;91.83;100931.03;5077656;28;20270;-50
2022/01/31 01:26:01;;;;;;;15.93;4.43;;;;;;;3.54;92.34;100927.53;5078470;28;20241;-50
2022/01/31 01:28:29;;;;;;;15.67;4.10;;;;;;;3.49;92.22;100910.06;5083895;28;20275;-49
2022/01/31 01:30:56;;;;;;;17.63;4.43;;;;;;;3.55;92.04;100913.75;5075896;27;20245;-49
2022/01/31 01:33:24;;;;;;;17.43;3.27;;;;;;;3.66;90.95;100906.28;5082109;27;20261;-49
2022/01/31 01:35:53;;;;;;;17.50;4.20;;;;;;;3.62;89.92;100899.25;5084290;28;20222;-51
2022/01/31 01:38:23;;;;;;;17.50;4.43;;;;;;;3.68;90.30;100890.72;5075402;28;20705;-50
2022/01/31 01:40:49;;;;;;;10.20;3.57;;;;;;;3.72;88.57;100885.69;5085222;28;20249;-51
2022/01/31 01:43:16;;;;;;;22.47;4.37;;;;;;;3.75;88.59;100880.56;5084892;28;20671;-49
2022/01/31 01:45:44;;;;;;;27.10;4.50;;;;;;;3.76;86.75;100874.56;5089793;27;20283;-52
2022/01/31 01:48:11;;;;;;;19.50;5.17;;;;;;;3.57;88.02;100861.84;5083733;28;20255;-51
2022/01/31 01:50:39;;;;;;;19.10;3.33;;;;;;;3.51;88.94;100854.78;5081217;27;20270;-51
2022/01/31 01:53:07;;;;;;;13.10;3.60;;;;;;;3.67;86.68;100843.13;5082150;28;20687;-51
2022/01/31 01:55:33;;;;;;;11.37;3.90;;;;;;;3.72;86.50;100836.34;5079809;28;20261;-50
2022/01/31 01:58:00;;;;;;;24.90;4.10;;;;;;;3.69;86.69;100827.59;5081222;28;20256;-52
2022/01/31 02:00:43;;;;;;;18.13;4.13;;;;;;;3.61;86.49;100811.78;5078978;27;20286;-51
2022/01/31 02:03:10;;;;;;;15.40;3.60;;;;;;;3.51;87.05;100810.66;5077858;28;20309;-51
2022/01/31 02:05:37;;;;;;;14.97;3.47;;;;;;;3.59;85.66;100818.66;5080259;28;20267;-52
2022/01/31 02:08:04;;;;;;;10.37;3.20;;;;;;;3.57;85.60;100807.34;5074580;28;20307;-49
2022/01/31 02:10:30;;;;;;;20.60;4.33;;;;;;;3.60;85.18;100804.84;5072332;28;20238;-49
2022/01/31 02:12:56;;;;;;;25.37;5.23;;;;;;;3.50;84.48;100813.19;5075180;28;20250;-50
2022/01/31 02:15:25;;;;;;;11.60;3.37;;;;;;;3.60;84.16;100799.66;5079240;28;20284;-54
2022/01/31 02:17:52;;;;;;;8.70;3.77;;;;;;;3.53;84.97;100793.41;5080283;28;20345;-51
2022/01/31 02:20:19;;;;;;;16.23;3.60;;;;;;;3.56;83.45;100777.03;5079499;28;20300;-50
2022/01/31 02:22:48;;;;;;;18.43;3.97;;;;;;;3.50;83.79;100777.72;5082069;28;20672;-51
2022/01/31 02:25:14;;;;;;;17.53;3.93;;;;;;;3.54;83.05;100776.97;5081578;28;20249;-49
2022/01/31 02:27:41;;;;;;;20.73;4.10;;;;;;;3.60;83.10;100765.91;5078100;28;20679;-49
2022/01/31 02:30:09;;;;;;;15.77;4.43;;;;;;;3.64;82.37;100759.94;5078242;28;20274;-50
2022/01/31 02:32:36;;;;;;;11.80;4.17;;;;;;;3.71;81.26;100761.88;5076624;28;20265;-51
2022/01/31 02:35:02;;;;;;;16.23;3.93;;;;;;;3.66;81.35;100749.63;5078484;28;20230;-51
2022/01/31 02:37:29;;;;;;;10.63;2.97;;;;;;;3.45;81.98;100747.31;5079177;28;20358;-51
2022/01/31 02:39:56;;;;;;;22.90;4.87;;;;;;;3.28;82.48;100750.31;5077595;28;20284;-49
2022/01/31 02:42:23;;;;;;;13.80;3.77;;;;;;;3.41;82.15;100735.09;5082007;27;20262;-49
2022/01/31 02:44:50;;;;;;;14.60;3.23;;;;;;;3.44;81.99;100740.34;5082781;28;20239;-50
2022/01/31 02:47:23;;;;;;;11.67;3.63;;;;;;;3.56;82.10;100722.53;5074426;28;20246;-49
2022/01/31 02:49:54;;;;;;;10.57;3.13;;;;;;;3.47;81.42;100724.88;5080848;28;20226;-51
2022/01/31 02:52:21;;;;;;;12.13;4.27;;;;;;;3.40;82.24;100715.16;5071310;28;20237;-50
2022/01/31 02:54:48;;;;;;;13.37;5.17;;;;;;;3.31;81.76;100703.69;5076697;27;20455;-51
2022/01/31 02:57:15;;;;;;;22.13;4.00;;;;;;;3.46;81.41;100698.03;5080378;28;20354;-50
2022/01/31 02:59:42;;;;;;;21.43;5.43;;;;;;;3.45;81.66;100691.09;5074236;27;20288;-52
2022/01/31 03:02:08;;;;;;;16.80;3.57;;;;;;;3.33;80.85;100696.84;5076796;28;20261;-46
2022/01/31 03:04:34;;;;;;;20.87;4.40;;;;;;;3.35;81.87;100682.19;5077016;28;20315;-50
2022/01/31 03:07:01;;;;;;;14.80;4.17;;;;;;;3.44;81.35;100685.84;5082236;28;20341;-51
2022/01/31 03:09:27;;;;;;;22.20;4.90;;;;;;;3.37;81.38;100684.81;5077069;28;20273;-50
2022/01/31 03:11:54;;;;;;;24.03;4.97;;;;;;;3.42;81.06;100677.16;5075873;28;20258;-52
2022/01/31 03:14:21;;;;;;;20.80;4.40;;;;;;;3.51;81.02;100677.38;5080041;28;20226;-51
2022/01/31 03:16:48;;;;;;;15.27;3.70;;;;;;;3.52;81.06;100671.38;5082014;27;20319;-51
2022/01/31 03:19:15;;;;;;;16.23;3.40;;;;;;;3.44;81.88;100663.41;5077203;28;20277;-50
2022/01/31 03:21:43;;;;;;;13.17;3.43;;;;;;;3.56;79.87;100655.03;5073994;27;20910;-49
2022/01/31 03:24:10;;;;;;;20.93;4.30;;;;;;;3.53;79.80;100657.56;5077325;28;20236;-48
2022/01/31 03:26:38;;;;;;;15.47;3.67;;;;;;;3.52;80.17;100653.22;5078130;28;20245;-50
2022/01/31 03:29:04;;;;;;;14.03;3.40;;;;;;;3.36;79.84;100649.31;5080593;28;20287;-49
2022/01/31 03:31:32;;;;;;;9.30;3.87;;;;;;;3.52;80.08;100635.03;5079226;28;21023;-50
2022/01/31 03:33:59;;;;;;;11.77;3.63;;;;;;;3.32;80.44;100627.59;5081501;28;20227;-50
2022/01/31 03:36:25;;;;;;;14.00;3.40;;;;;;;3.46;80.47;100619.31;5076636;28;20237;-49
2022/01/31 03:38:51;;;;;;;19.57;5.03;;;;;;;3.47;80.28;100610.66;5081206;28;20266;-49
2022/01/31 03:41:21;;;;;;;12.57;3.23;;;;;;;3.46;80.27;100598.53;5082241;28;20355;-52
2022/01/31 03:43:48;;;;;;;10.93;4.27;;;;;;;3.33;80.39;100597.34;5071652;28;20762;-48
2022/01/31 03:46:15;;;;;;;11.73;3.83;;;;;;;3.30;81.05;100586.88;5078223;28;20249;-50
2022/01/31 03:48:43;;;;;;;19.27;4.03;;;;;;;3.42;80.77;100578.53;5075655;27;20268;-51
2022/01/31 03:51:10;;;;;;;13.93;3.77;;;;;;;3.41;80.27;100572.47;5079500;28;20245;-50
2022/01/31 03:53:36;;;;;;;20.70;5.20;;;;;;;3.25;79.86;100558.22;5080599;28;20233;-50
2022/01/31 03:56:02;;;;;;;19.87;4.13;;;;;;;3.25;80.66;100553.03;5079746;28;20922;-52
2022/01/31 03:58:29;;;;;;;14.93;3.53;;;;;;;3.30;81.20;100556.66;5081956;28;20276;-50
2022/01/31 04:00:55;;;;;;;17.50;4.70;;;;;;;3.32;79.77;100552.34;5076404;27;20662;-51
2022/01/31 04:03:21;;;;;;;15.50;4.20;;;;;;;3.28;80.64;100537.56;5075632;27;20950;-50
2022/01/31 04:05:49;;;;;;;10.73;3.50;;;;;;;3.20;81.48;100527.84;5071740;28;20304;-50
2022/01/31 04:08:15;;;;;;;23.77;4.80;;;;;;;3.20;80.41;100528.72;5077444;28;20261;-50
2022/01/31 04:10:42;;;;;;;12.70;3.37;;;;;;;3.14;80.20;100518.16;5077600;28;20315;-51
2022/01/31 04:13:09;;;;;;;14.33;3.63;;;;;;;3.23;80.75;100517.50;5077589;28;20614;-49
2022/01/31 04:15:35;;;;;;;21.50;5.27;;;;;;;3.10;81.57;100511.16;5081056;28;20236;-50
2022/01/31 04:18:02;;;;;;;15.73;4.03;;;;;;;3.11;81.67;100497.34;5076657;28;20267;-50
2022/01/31 04:20:28;;;;;;;14.20;4.00;;;;;;;3.15;81.72;100491.38;5074323;28;20283;-49
2022/01/31 04:23:00;;;;;;;19.03;4.73;;;;;;;3.15;81.22;100482.72;5078706;28;20741;-48
2022/01/31 04:25:31;;;;;;;15.10;4.57;;;;;;;3.16;81.16;100477.59;5078670;28;20264;-50
2022/01/31 04:28:03;;;;;;;15.37;5.23;;;;;;;3.10;80.99;100480.03;5074784;27;20318;-50
2022/01/31 04:30:30;;;;;;;19.93;4.83;;;;;;;3.14;81.70;100461.09;5073145;27;20233;-48
2022/01/31 04:32:57;;;;;;;18.07;4.07;;;;;;;3.01;81.88;100456.44;5077008;28;20320;-51
2022/01/31 04:35:23;;;;;;;17.77;4.97;;;;;;;2.86;82.18;100437.06;5079622;27;20352;-51
2022/01/31 04:37:50;;;;;;;15.83;3.90;;;;;;;2.98;83.20;100425.25;5072581;28;20281;-53
2022/01/31 04:40:17;;;;;;;12.07;5.00;;;;;;;3.06;82.27;100427.22;5078955;27;20263;-49
2022/01/31 04:42:45;;;;;;;10.97;4.17;;;;;;;3.08;81.55;100437.59;5082178;27;20284;-49
2022/01/31 04:45:11;;;;;;;12.60;4.50;;;;;;;2.91;82.30;100429.41;5074591;28;20225;-50
2022/01/31 04:47:38;;;;;;;20.43;5.30;;;;;;;3.13;81.20;100411.81;5078543;28;20285;-51
2022/01/31 04:50:06;;;;;;;15.97;5.43;;;;;;;2.97;81.82;100401.03;5074102;28;20301;-49
2022/01/31 04:52:32;;;;;;;25.03;4.47;;;;;;;2.80;82.76;100391.97;5076010;28;20238;-51
2022/01/31 04:54:59;;;;;;;17.50;4.07;;;;;;;2.82;83.19;100386.00;5079618;28;20655;-52
2022/01/31 04:57:26;;;;;;;13.30;3.40;;;;;;;2.86;83.30;100386.94;5077987;28;20561;-50
2022/01/31 04:59:53;;;;;;;15.00;3.40;;;;;;;2.86;83.07;100381.75;5081794;28;20295;-49
2022/01/31 05:02:19;;;;;;;15.67;4.40;;;;;;;2.93;82.92;100385.38;5078502;27;20237;-50
2022/01/31 05:04:45;;;;;;;19.43;5.17;;;;;;;2.93;83.10;100377.59;5081236;28;20707;-51
2022/01/31 05:07:12;;;;;;;21.60;5.97;;;;;;;2.84;82.74;100370.47;5080001;28;20226;-50
2022/01/31 05:09:38;;;;;;;19.47;3.70;;;;;;;2.78;84.06;100366.03;5075909;28;20241;-51
2022/01/31 05:12:06;;;;;;;12.13;4.23;;;;;;;2.88;83.44;100354.16;5077519;28;20658;-49
2022/01/31 05:14:33;;;;;;;14.77;5.20;;;;;;;3.01;82.66;100357.91;5076192;28;20284;-52
2022/01/31 05:16:59;;;;;;;14.50;3.93;;;;;;;2.95;83.72;100358.66;5075917;28;20743;-52
2022/01/31 05:19:26;;;;;;;13.43;5.43;;;;;;;3.05;83.17;100354.53;5079850;28;20260;-51
2022/01/31 05:21:52;;;;;;;14.57;5.40;;;;;;;2.98;82.69;100350.03;5072422;28;20343;-49
2022/01/31 05:24:18;;;;;;;15.73;4.00;;;;;;;2.95;82.50;100344.78;5077321;28;20906;-51
2022/01/31 05:26:50;;;;;;;20.07;4.30;;;;;;;2.93;83.57;100346.50;5079991;28;20262;-49
2022/01/31 05:29:16;;;;;;;17.40;5.23;;;;;;;2.95;83.70;100334.41;5071856;28;20364;-51
2022/01/31 05:31:44;;;;;;;19.57;4.80;;;;;;;2.97;82.21;100331.03;5079264;27;20363;-49
2022/01/31 05:34:11;;;;;;;21.80;5.63;;;;;;;2.89;81.70;100318.75;5078248;27;20321;-50
2022/01/31 05:36:38;;;;;;;18.77;4.20;;;;;;;2.93;82.44;100299.81;5074138;28;20267;-49
2022/01/31 05:39:04;;;;;;;18.33;3.83;;;;;;;2.80;82.69;100302.09;5079253;28;20319;-50
2022/01/31 05:41:30;;;;;;;19.90;5.50;;;;;;;2.78;82.49;100296.03;5084748;28;20237;-49
2022/01/31 05:43:57;;;;;;;9.07;4.50;;;;;;;2.75;82.73;100284.72;5082475;27;20657;-49
2022/01/31 05:46:23;;;;;;;27.37;6.00;;;;;;;2.69;82.75;100280.25;5078881;28;20894;-51
2022/01/31 05:48:51;;;;;;;14.83;4.17;;;;;;;2.68;83.05;100278.50;5081652;28;20279;-50
2022/01/31 05:51:19;;;;;;;14.00;4.77;;;;;;;2.66;82.73;100269.81;5078578;27;20229;-51
2022/01/31 05:53:47;;;;;;;18.93;4.80;;;;;;;2.65;82.58;100265.47;5081309;28;20350;-49
2022/01/31 05:56:13;;;;;;;12.03;3.40;;;;;;;2.63;82.91;100255.09;5076399;28;20230;-49
2022/01/31 05:58:40;;;;;;;23.00;5.10;;;;;;;2.58;83.51;100250.63;5081318;28;20773;-48
2022/01/31 06:01:07;;;;;;;22.43;6.07;;;;;;;2.57;83.57;100252.34;5084177;28;20231;-51
2022/01/31 06:03:33;;;;;;;21.13;4.40;;;;;;;2.56;83.29;100247.09;5074596;28;20236;-48
2022/01/31 06:06:01;;;;;;;13.40;4.30;;;;;;;2.59;83.15;100247.19;5080113;28;20238;-51
2022/01/31 06:08:28;;;;;;;32.00;6.63;;;;;;;2.46;83.83;100239.97;5083239;28;20268;-49
2022/01/31 06:10:54;;;;;;;25.80;5.13;;;;;;;2.46;83.57;100234.78;5076387;28;20237;-46
2022/01/31 06:13:24;;;;;;;20.43;5.33;;;;;;;2.52;83.05;100229.75;5075376;28;20322;-52
2022/01/31 06:15:50;;;;;;;19.43;5.10;;;;;;;2.51;82.58;100217.63;5079550;28;20241;-51
2022/01/31 06:18:17;;;;;;;15.83;4.33;;;;;;;2.51;82.75;100207.28;5075835;28;20264;-50
2022/01/31 06:20:44;;;;;;;20.13;4.20;;;;;;;2.52;82.68;100209.88;5082147;27;20618;-50
2022/01/31 06:23:12;;;;;;;34.10;5.03;;;;;;;2.37;83.15;100196.59;5078212;28;20226;-51
2022/01/31 06:25:39;;;;;;;13.13;3.67;;;;;;;2.38;83.71;100185.38;5078912;28;20287;-47
2022/01/31 06:28:06;;;;;;;15.80;3.33;;;;;;;2.37;83.08;100187.09;5081210;28;20238;-49
2022/01/31 06:30:33;;;;;;;29.97;5.20;;;;;;;2.35;83.15;100181.03;5077242;28;20348;-49
2022/01/31 06:32:59;;;;;;;8.93;3.40;;;;;;;2.37;83.55;100184.50;5078588;28;20660;-51
2022/01/31 06:35:26;;;;;;;18.63;4.90;;;;;;;2.48;82.34;100186.47;5079439;28;20324;-48
2022/01/31 06:37:52;;;;;;;13.67;4.00;;;;;;;2.38;83.01;100173.31;5079656;28;20324;-51
2022/01/31 06:40:20;;;;;;;16.53;4.73;;;;;;;2.45;83.40;100165.69;5077085;27;20233;-51
2022/01/31 06:42:46;;;;;;;21.97;4.57;;;;;;;2.42;82.77;100160.41;5078699;28;20227;-50
2022/01/31 06:45:14;;;;;;;14.87;4.63;;;;;;;2.49;81.92;100152.84;5077236;28;20776;-52
2022/01/31 06:47:40;;;;;;;14.00;4.37;;;;;;;2.43;82.26;100138.88;5081688;27;20252;-49
2022/01/31 06:50:09;;;;;;;15.63;4.33;;;;;;;2.40;82.47;100137.09;5077580;27;20337;-50
2022/01/31 06:52:37;;;;;;;11.87;4.10;;;;;;;2.42;82.44;100131.94;5079571;27;20709;-50
2022/01/31 06:55:06;;;;;;;16.73;4.90;;;;;;;2.39;82.49;100124.97;5077758;28;20243;-52
2022/01/31 06:57:35;;;;;;;16.00;3.83;;;;;;;2.37;83.14;100122.34;5082441;28;20307;-50
2022/01/31 07:00:02;;;;;;;13.63;4.50;;;;;;;2.40;82.52;100121.53;5083255;28;20550;-50
2022/01/31 07:02:28;;;;;;;27.90;5.63;;;;;;;2.39;83.44;100115.50;5074034;27;20241;-50
2022/01/31 07:04:55;;;;;;;15.83;4.23;;;;;;;2.42;83.34;100108.59;5075898;28;20708;-49
2022/01/31 07:07:21;;;;;;;23.80;4.67;;;;;;;2.40;82.30;100111.19;5069169;28;20298;-50
2022/01/31 07:09:47;;;;;;;24.03;4.80;;;;;;;2.37;83.28;100106.81;5081886;28;20233;-49
2022/01/31 07:12:16;;;;;;;23.47;5.00;;;;;;;2.45;83.37;100104.38;5079937;27;22637;-50
2022/01/31 07:14:44;;;;;;;15.83;4.50;;;;;;;2.48;82.02;100104.44;5081436;27;20244;-53
2022/01/31 07:17:11;;;;;;;18.23;4.53;;;;;;;2.46;82.33;100103.56;5080667;27;20298;-46
2022/01/31 07:19:39;;;;;;;24.97;6.30;;;;;;;2.38;82.50;100095.59;5079662;27;20320;-48
2022/01/31 07:22:09;;;;;;;17.80;4.00;;;;;;;2.50;81.55;100092.41;5081576;27;20779;-50
2022/01/31 07:24:46;;;;;;;13.87;4.40;;;;;;;2.57;81.46;100088.22;5080768;27;20941;-49
2022/01/31 07:27:12;;;;;;;19.77;5.63;;;;;;;2.49;81.61;100084.59;5073513;28;20241;-49
2022/01/31 07:29:39;;;;;;;26.73;4.37;;;;;;;2.57;80.86;100083.03;5088003;28;20229;-50
2022/01/31 07:32:09;;;;;;;21.70;5.00;;;;;;;2.54;81.79;100075.19;5078506;27;20254;-50
2022/01/31 07:34:36;;;;;;;17.83;4.30;;;;;;;2.50;81.29;100087.22;5077470;28;20246;-47
2022/01/31 07:37:03;;;;;;;18.67;5.37;;;;;;;2.48;81.93;100075.06;5072045;28;20718;-49
2022/01/31 07:39:30;;;;;;;15.63;4.20;;;;;;;2.42;82.58;100080.13;5078248;28;20241;-50
2022/01/31 07:41:56;;;;;;;9.97;3.67;;;;;;;2.43;81.69;100079.28;5077958;28;20256;-49
2022/01/31 07:44:22;;;;;;;18.90;4.83;;;;;;;2.31;82.40;100065.22;5073812;28;20334;-50
2022/01/31 07:46:49;;;;;;;12.57;4.63;;;;;;;2.37;83.33;100060.16;5076261;27;20709;-49
2022/01/31 07:49:17;;;;;;;15.80;4.93;;;;;;;2.51;82.30;100057.88;5078015;28;20670;-49
2022/01/31 07:51:43;;;;;;;17.83;3.97;;;;;;;2.57;81.37;100051.94;5080856;28;20286;-49
2022/01/31 07:54:10;;;;;;;19.27;5.13;;;;;;;2.62;80.73;100056.38;5069896;27;20308;-50
2022/01/31 07:56:37;;;;;;;16.03;6.47;;;;;;;2.41;81.23;100044.69;5074431;27;20229;-49
2022/01/31 07:59:03;;;;;;;21.40;5.20;;;;;;;2.43;81.77;100043.91;5072997;28;20659;-49
2022/01/31 08:01:29;;;;;;;14.77;4.87;;;;;;;2.43;81.84;100037.84;5080494;28;20233;-49
2022/01/31 08:03:56;;;;;;;23.40;5.30;;;;;;;2.47;81.44;100040.53;5079570;27;20264;-49
2022/01/31 08:06:24;;;;;;;19.87;5.80;;;;;;;2.45;81.75;100038.72;5067021;28;20419;-47
2022/01/31 08:08:50;;;;;;;16.10;5.47;;;;;;;2.58;81.31;100022.59;5066725;27;20262;-52
2022/01/31 08:11:17;;;;;;;19.43;5.37;;;;;;;2.55;82.03;100027.72;5073521;28;20320;-47
2022/01/31 08:13:43;;;;;;;18.73;5.63;;;;;;;2.55;81.34;100027.72;5077594;28;20260;-48
2022/01/31 08:16:13;;;;;;;27.17;4.70;;;;;;;2.50;82.57;100024.16;5073637;28;20252;-47
2022/01/31 08:18:42;;;;;;;16.73;6.13;;;;;;;2.52;81.71;100015.56;5068171;28;20279;-48
2022/01/31 08:21:09;;;;;;;16.57;5.60;;;;;;;2.53;81.84;100009.56;5079412;28;20282;-48
2022/01/31 08:23:37;;;;;;;22.80;5.43;;;;;;;2.59;81.80;100013.97;5074586;28;20253;-50
2022/01/31 08:26:05;;;;;;;16.67;4.67;;;;;;;2.73;81.64;100002.16;5075799;28;20233;-50
2022/01/31 08:28:38;;;;;;;22.83;5.40;;;;;;;2.67;80.94;100012.41;5078000;28;20321;-52
2022/01/31 08:31:13;;;;;;;21.23;5.10;;;;;;;2.63;81.83;100006.31;5078814;27;20320;-49
2022/01/31 08:33:44;;;;;;;16.73;4.43;;;;;;;2.69;81.60;100005.53;5077123;27;20236;-49
2022/01/31 08:36:11;;;;;;;19.10;5.07;;;;;;;2.61;81.77;100001.94;5075192;28;20722;-48
2022/01/31 08:38:41;;;;;;;19.27;6.60;;;;;;;2.66;81.84;99995.09;5078224;27;20307;-48
2022/01/31 08:41:08;;;;;;;14.67;4.70;;;;;;;2.71;81.89;99992.63;5073287;28;20283;-49
2022/01/31 08:43:35;;;;;;;18.07;5.37;;;;;;;2.72;81.07;99990.03;5083907;27;20245;-48
2022/01/31 08:46:02;;;;;;;17.97;5.97;;;;;;;2.89;82.33;99987.75;5092975;28;20373;-49
2022/01/31 08:48:30;;;;;;;23.20;6.13;;;;;;;2.83;80.60;99983.31;5088902;27;20241;-49
2022/01/31 08:50:57;;;;;;;14.13;5.40;;;;;;;2.90;80.67;99980.84;5094404;28;20289;-50
2022/01/31 08:53:23;;;;;;;15.17;5.00;;;;;;;2.96;79.87;99978.38;5087635;28;20710;-49
2022/01/31 08:55:53;;;;;;;24.10;5.73;;;;;;;3.01;79.79;99976.72;5084790;27;20258;-51
2022/01/31 08:58:21;;;;;;;17.47;4.50;;;;;;;2.95;79.16;99971.41;5076623;27;20226;-54
2022/01/31 09:00:49;;;;;;;21.47;5.27;;;;;;;2.90;79.51;99967.88;5077377;28;20547;-49
2022/01/31 09:03:23;;;;;;;23.40;4.87;;;;;;;2.91;80.08;99956.66;5075075;28;20317;-49
2022/01/31 09:05:50;;;;;;;21.97;5.53;;;;;;;2.98;79.82;99955.91;5075155;28;20240;-49
2022/01/31 09:08:16;;;;;;;20.87;5.60;;;;;;;2.99;80.21;99963.75;5078941;28;20245;-48
2022/01/31 09:10:44;;;;;;;17.03;4.87;;;;;;;2.99;79.27;99961.16;5075427;28;20317;-47
2022/01/31 09:13:14;;;;;;;14.70;5.73;;;;;;;2.94;78.68;99954.13;5062836;27;20754;-50
2022/01/31 09:15:41;;;;;;;21.93;5.13;;;;;;;2.95;79.36;99955.88;5072768;28;20384;-51
2022/01/31 09:18:08;;;;;;;22.93;5.47;;;;;;;2.95;79.52;99961.94;5083796;28;20613;-52
2022/01/31 09:20:35;;;;;;;15.60;5.37;;;;;;;3.16;78.64;99961.44;5086393;28;20229;-49
2022/01/31 09:23:02;;;;;;;19.03;5.47;;;;;;;3.16;78.58;99955.34;5079413;28;20234;-50
2022/01/31 09:25:29;;;;;;;17.73;4.40;;;;;;;3.12;79.20;99949.25;5085272;28;20254;-49
2022/01/31 09:27:55;;;;;;;19.50;4.57;;;;;;;3.26;77.11;99945.16;5087290;28;20244;-48
2022/01/31 09:30:26;;;;;;;21.43;5.90;;;;;;;3.21;77.49;99936.44;5077136;28;20226;-49
2022/01/31 09:32:52;;;;;;;23.40;5.63;;;;;;;3.05;79.06;99939.63;5083198;28;20752;-48
2022/01/31 09:35:19;;;;;;;23.83;6.30;;;;;;;3.29;78.24;99947.78;5084016;28;20229;-49
2022/01/31 09:37:45;;;;;;;14.63;4.67;;;;;;;3.51;79.19;99938.63;5085243;28;20298;-48
2022/01/31 09:40:17;;;;;;;23.57;4.53;;;;;;;3.50;77.03;99939.47;5085145;27;20253;-50
2022/01/31 09:43:02;;;;;;;21.60;5.13;;;;;;;3.41;77.98;99931.56;5083085;28;20236;-50
2022/01/31 09:45:48;;;;;;;23.67;4.73;;;;;;;3.49;78.72;99924.75;5076018;28;20241;-47
2022/01/31 09:48:35;;;;;;;14.40;4.77;;;;;;;3.61;78.04;99918.84;5082276;27;22296;-47
2022/01/31 09:51:05;;;;;;;17.13;7.10;;;;;;;3.47;77.57;99915.19;5077153;27;20249;-49
2022/01/31 09:53:34;;;;;;;21.73;5.37;;;;;;;3.50;76.42;99921.28;5081589;28;20312;-49
2022/01/31 09:56:01;;;;;;;20.47;5.37;;;;;;;3.51;75.51;99911.78;5079386;28;20257;-52
2022/01/31 09:58:29;;;;;;;17.23;5.53;;;;;;;3.55;78.41;99921.38;5078492;28;20242;-49
2022/01/31 10:01:05;;;;;;;13.33;4.17;;;;;;;3.64;76.47;99912.84;5077630;28;20230;-49
2022/01/31 10:03:31;;;;;;;15.52;5.25;;;;;;;3.72;78.34;99914.69;5077648;28;20410;-51
2022/01/31 10:05:58;;;;;;;10.70;4.13;;;;;;;3.70;76.12;99919.00;5083108;28;20321;-51
2022/01/31 10:08:29;;;;;;;18.90;5.07;;;;;;;3.76;76.65;99926.88;5084294;27;20239;-48
2022/01/31 10:11:00;;;;;;;16.20;5.00;;;;;;;3.67;74.77;99918.94;5070956;28;20241;-47
2022/01/31 10:16:30;;;;;;;19.50;6.47;;;;;;;3.67;76.70;99920.66;5082050;27;21930;-49
2022/01/31 10:19:06;;;;;;;21.63;5.10;;;;;;;3.71;75.70;99917.25;5080966;28;20254;-48
2022/01/31 10:21:32;;;;;;;14.20;5.20;;;;;;;3.72;76.93;99922.50;5080271;28;20234;-49
2022/01/31 10:23:58;;;;;;;11.77;5.07;;;;;;;3.76;76.40;99924.28;5083802;28;20222;-50
2022/01/31 10:26:31;;;;;;;15.73;4.53;;;;;;;3.90;74.38;99916.66;5081854;27;20253;-48
2022/01/31 10:29:11;;;;;;;14.33;5.60;;;;;;;3.74;76.04;99925.97;5081856;27;20315;-48
2022/01/31 10:31:53;;;;;;;17.30;4.93;;;;;;;3.59;75.68;99917.97;5072542;27;20754;-50
2022/01/31 10:34:23;;;;;;;18.40;4.10;;;;;;;3.71;77.69;99907.75;5073886;28;20696;-50
2022/01/31 10:36:49;;;;;;;16.43;4.67;;;;;;;3.58;77.83;99908.44;5085172;28;20882;-51
2022/01/31 10:43:23;;;;;;;14.57;3.90;;;;;;;3.69;78.24;99909.47;5078387;28;20258;-50
2022/01/31 10:50:51;;;;;;;17.27;4.00;;;;;;;3.98;74.97;99890.78;5079326;27;20229;-48
2022/01/31 10:53:17;;;;;;;21.63;5.60;;;;;;;3.82;75.35;99892.31;5074891;28;20222;-47
2022/01/31 10:55:53;;;;;;;19.03;6.43;;;;;;;3.95;79.51;99886.41;5075391;28;20232;-48
2022/01/31 10:58:20;;;;;;;21.00;5.17;;;;;;;3.89;77.01;99885.47;5080690;28;20226;-49
2022/01/31 11:00:46;;;;;;;15.53;6.33;;;;;;;3.91;77.05;99882.03;5076053;28;20234;-49
2022/01/31 11:03:28;;;;;;;9.87;4.00;;;;;;;4.04;76.63;99888.25;5080641;28;20303;-47
2022/01/31 11:05:54;;;;;;;18.67;4.13;;;;;;;4.06;75.96;99882.22;5084419;28;20234;-49
2022/01/31 11:08:21;;;;;;;19.17;5.40;;;;;;;4.10;74.64;99885.72;5082387;28;20246;-49
2022/01/31 11:10:47;;;;;;;14.43;4.80;;;;;;;4.01;74.22;99889.09;5083890;27;20269;-50
2022/01/31 11:13:15;;;;;;;15.43;5.47;;;;;;;3.93;74.59;99884.66;5082975;28;20246;-48
2022/01/31 11:15:41;;;;;;;14.70;4.67;;;;;;;3.89;74.62;99888.06;5085765;27;20230;-49
2022/01/31 11:18:08;;;;;;;17.70;5.50;;;;;;;3.83;74.94;99887.16;5081720;27;20292;-48
2022/01/31 11:20:37;;;;;;;12.00;4.27;;;;;;;4.01;75.57;99894.28;5085089;28;20249;-48
2022/01/31 11:23:04;;;;;;;13.57;5.00;;;;;;;4.14;74.83;99886.63;5082551;28;20291;-50
2022/01/31 11:25:31;;;;;;;13.23;4.33;;;;;;;4.23;74.83;99889.34;5074565;28;20585;-47
2022/01/31 11:28:00;;;;;;;14.73;5.13;;;;;;;4.11;74.40;99884.88;5079158;28;20254;-47
2022/01/31 11:30:26;;;;;;;14.77;4.27;;;;;;;4.25;75.03;99890.25;5076074;28;20258;-47
2022/01/31 11:32:53;;;;;;;10.70;4.50;;;;;;;4.22;74.67;99885.88;5074997;27;20235;-50
2022/01/31 11:35:20;;;;;;;12.73;4.80;;;;;;;4.14;73.98;99884.91;5065425;28;20228;-47
2022/01/31 11:37:48;;;;;;;17.90;4.63;;;;;;;4.24;74.20;99873.75;5080423;28;20230;-49
2022/01/31 11:40:16;;;;;;;14.73;4.27;;;;;;;4.34;74.38;99879.91;5077859;28;20296;-52
2022/01/31 11:42:43;;;;;;;14.50;4.37;;;;;;;4.30;73.59;99876.41;5073357;28;20251;-48
2022/01/31 11:45:17;;;;;;;18.60;5.63;;;;;;;4.35;74.27;99878.19;5080283;28;20310;-49